createdAt,value
2022-08-31T00:04:34.224Z,26.70
2022-08-31T00:09:54.308Z,26.70
2022-08-31T00:15:14.422Z,26.80
2022-08-31T00:20:35.004Z,26.80
2022-08-31T00:25:55.252Z,26.80
2022-08-31T00:31:15.390Z,26.70
2022-08-31T00:36:35.491Z,26.70
2022-08-31T00:41:55.584Z,26.70
2022-08-31T00:47:15.776Z,26.70
2022-08-31T00:52:37.593Z,26.70
2022-08-31T00:57:58.108Z,26.70
2022-08-31T01:03:18.969Z,26.70
2022-08-31T01:08:38.848Z,26.70
2022-08-31T01:13:59.100Z,26.70
2022-08-31T01:19:19.254Z,26.70
2022-08-31T01:24:39.447Z,26.70
2022-08-31T01:29:59.607Z,26.70
2022-08-31T01:35:19.700Z,26.60
2022-08-31T01:40:39.854Z,26.60
2022-08-31T01:45:59.903Z,26.60
2022-08-31T01:51:20.093Z,26.60
2022-08-31T01:56:40.204Z,26.60
2022-08-31T02:02:00.323Z,26.60
2022-08-31T02:07:20.364Z,26.60
2022-08-31T02:12:40.407Z,26.60
2022-08-31T02:18:00.575Z,26.50
2022-08-31T02:23:21.667Z,26.50
2022-08-31T02:28:41.956Z,26.60
2022-08-31T02:34:02.038Z,26.60
2022-08-31T02:39:22.309Z,26.60
2022-08-31T02:44:42.489Z,26.60
2022-08-31T02:50:02.647Z,26.60
2022-08-31T02:55:22.826Z,26.60
2022-08-31T03:00:43.458Z,26.60
2022-08-31T03:06:03.606Z,26.60
2022-08-31T03:11:23.791Z,26.60
2022-08-31T03:16:43.830Z,26.60
2022-08-31T03:22:03.999Z,26.60
2022-08-31T03:27:24.028Z,26.60
2022-08-31T03:32:44.241Z,26.60
2022-08-31T03:38:04.446Z,26.60
2022-08-31T03:43:24.738Z,26.60
2022-08-31T03:48:44.754Z,26.60
2022-08-31T03:54:04.853Z,26.50
2022-08-31T03:59:24.926Z,26.50
2022-08-31T04:04:45.211Z,26.50
2022-08-31T04:10:05.432Z,26.50
2022-08-31T04:15:25.619Z,26.50
2022-08-31T04:20:49.887Z,26.60
2022-08-31T04:26:09.992Z,26.60
2022-08-31T04:31:30.074Z,26.60
2022-08-31T04:36:50.206Z,26.70
2022-08-31T04:42:10.204Z,26.70
2022-08-31T04:47:30.362Z,26.70
2022-08-31T04:53:03.910Z,26.80
2022-08-31T04:58:24.106Z,26.80
2022-08-31T05:03:44.152Z,26.80
2022-08-31T05:09:04.304Z,26.90
2022-08-31T05:14:24.396Z,26.80
2022-08-31T05:19:44.583Z,26.80
2022-08-31T05:25:04.732Z,26.80
2022-08-31T05:30:24.916Z,26.80
2022-08-31T05:35:45.079Z,26.80
2022-08-31T05:41:05.276Z,26.80
2022-08-31T05:46:25.477Z,26.70
2022-08-31T05:51:45.660Z,26.70
2022-08-31T05:57:05.938Z,26.70
2022-08-31T06:02:26.055Z,26.70
2022-08-31T06:07:46.613Z,26.70
2022-08-31T06:13:06.860Z,26.70
2022-08-31T06:18:27.013Z,26.70
2022-08-31T06:23:47.075Z,26.70
2022-08-31T06:29:07.127Z,26.70
2022-08-31T06:34:27.261Z,26.60
2022-08-31T06:39:47.386Z,26.50
2022-08-31T06:45:07.460Z,26.50
2022-08-31T06:50:27.987Z,26.50
2022-08-31T06:55:48.120Z,26.40
2022-08-31T07:01:08.268Z,26.50
2022-08-31T07:06:28.484Z,26.40
2022-08-31T07:11:48.664Z,26.50
2022-08-31T07:17:08.715Z,26.40
2022-08-31T07:22:28.731Z,26.40
2022-08-31T07:27:48.828Z,26.40
2022-08-31T07:33:08.913Z,26.40
2022-08-31T07:38:29.029Z,26.40
2022-08-31T07:43:49.310Z,26.50
2022-08-31T07:49:09.849Z,26.50
2022-08-31T07:54:30.045Z,26.50
2022-08-31T07:59:50.139Z,26.60
2022-08-31T08:05:10.244Z,26.60
2022-08-31T08:10:30.327Z,26.60
2022-08-31T08:15:50.349Z,26.50
2022-08-31T08:21:11.892Z,26.60
2022-08-31T08:26:32.011Z,26.50
2022-08-31T08:31:52.275Z,26.50
2022-08-31T08:37:12.350Z,26.40
2022-08-31T08:42:32.480Z,26.50
2022-08-31T08:47:52.746Z,26.50
2022-08-31T08:53:12.894Z,26.50
2022-08-31T08:58:33.319Z,26.50
2022-08-31T09:03:53.562Z,26.50
2022-08-31T09:09:13.744Z,26.50
2022-08-31T09:14:33.757Z,26.40
2022-08-31T09:19:53.830Z,26.40
2022-08-31T09:25:13.939Z,26.40
2022-08-31T09:30:34.270Z,26.40
2022-08-31T09:35:54.455Z,26.50
2022-08-31T09:41:14.598Z,26.50
2022-08-31T09:46:34.803Z,26.40
2022-08-31T09:51:55.055Z,26.40
2022-08-31T09:57:15.185Z,26.40
2022-08-31T10:02:35.370Z,26.40
2022-08-31T10:07:55.415Z,26.40
2022-08-31T10:13:15.609Z,26.40
2022-08-31T10:18:35.651Z,26.40
2022-08-31T10:23:55.808Z,26.40
2022-08-31T10:29:23.261Z,26.30
2022-08-31T10:34:43.421Z,26.50
2022-08-31T10:40:03.693Z,26.60
2022-08-31T10:45:23.856Z,26.60
2022-08-31T10:50:44.019Z,26.70
2022-08-31T10:56:04.186Z,26.70
2022-08-31T11:01:24.438Z,26.70
2022-08-31T11:06:44.548Z,26.70
2022-08-31T11:12:06.222Z,26.70
2022-08-31T11:17:26.446Z,26.70
2022-08-31T11:22:46.515Z,26.70
2022-08-31T11:28:06.809Z,26.70
2022-08-31T11:33:26.986Z,26.70
2022-08-31T11:38:47.044Z,26.70
2022-08-31T11:44:07.285Z,26.70
2022-08-31T11:49:27.380Z,26.70
2022-08-31T11:54:47.612Z,26.70
2022-08-31T12:00:07.897Z,26.80
2022-08-31T12:05:28.260Z,26.80
2022-08-31T12:10:48.695Z,26.80
2022-08-31T12:16:09.091Z,26.90
2022-08-31T12:21:29.320Z,27.00
2022-08-31T12:26:49.877Z,27.00
2022-08-31T12:32:11.181Z,27.00
2022-08-31T12:37:31.391Z,27.10
2022-08-31T12:42:51.663Z,27.10
2022-08-31T12:48:11.923Z,27.10
2022-08-31T12:53:32.115Z,27.20
2022-08-31T12:58:52.251Z,27.20
2022-08-31T13:04:12.390Z,27.20
2022-08-31T13:09:32.614Z,27.30
2022-08-31T13:14:52.762Z,27.30
2022-08-31T13:20:13.129Z,27.40
2022-08-31T13:25:33.182Z,27.40
2022-08-31T13:30:56.644Z,27.40
2022-08-31T13:36:17.678Z,27.40
2022-08-31T13:41:37.993Z,27.50
2022-08-31T13:46:58.234Z,27.50
2022-08-31T13:52:18.467Z,27.50
2022-08-31T13:57:38.554Z,27.50
2022-08-31T14:02:58.894Z,27.50
2022-08-31T14:08:18.931Z,27.50
2022-08-31T14:13:39.171Z,27.50
2022-08-31T14:18:59.404Z,27.50
2022-08-31T14:24:19.599Z,27.50
2022-08-31T14:29:39.661Z,27.50
2022-08-31T14:35:00.024Z,27.50
2022-08-31T14:40:19.960Z,27.50
2022-08-31T14:45:40.143Z,27.50
2022-08-31T14:51:00.177Z,27.40
2022-08-31T14:56:20.444Z,27.40
2022-08-31T15:01:40.513Z,27.40
2022-08-31T15:07:04.812Z,27.40
2022-08-31T15:12:29.939Z,27.40
2022-08-31T15:17:49.943Z,27.40
2022-08-31T15:23:10.125Z,27.50
2022-08-31T15:28:30.279Z,27.50
2022-08-31T15:33:50.488Z,27.50
2022-08-31T15:39:10.627Z,27.60
2022-08-31T15:44:30.822Z,27.60
2022-08-31T15:49:50.926Z,27.60
2022-08-31T15:55:11.137Z,27.50
2022-08-31T16:00:31.241Z,27.50
2022-08-31T16:05:51.369Z,27.50
2022-08-31T16:11:11.393Z,27.50
2022-08-31T16:16:31.993Z,27.60
2022-08-31T16:21:52.780Z,27.60
2022-08-31T16:27:12.985Z,27.50
2022-08-31T16:32:36.223Z,27.50
2022-08-31T16:37:56.440Z,27.50
2022-08-31T16:43:16.526Z,27.50
2022-08-31T16:48:36.642Z,27.50
2022-08-31T16:53:56.731Z,27.50
2022-08-31T16:59:16.967Z,27.50
2022-08-31T17:04:53.918Z,27.50
2022-08-31T17:10:14.264Z,27.50
2022-08-31T17:15:34.461Z,27.50
2022-08-31T17:20:54.644Z,27.40
2022-08-31T17:26:14.754Z,27.40
2022-08-31T17:31:34.930Z,27.40
2022-08-31T17:36:54.932Z,27.40
2022-08-31T17:42:15.083Z,27.40
2022-08-31T17:47:35.202Z,27.40
2022-08-31T17:52:55.350Z,27.40
2022-08-31T17:58:15.399Z,27.30
2022-08-31T18:03:35.590Z,27.30
2022-08-31T18:08:55.692Z,27.30
2022-08-31T18:14:15.856Z,27.30
2022-08-31T18:19:35.881Z,27.30
2022-08-31T18:24:55.990Z,27.30
2022-08-31T18:30:16.161Z,27.40
2022-08-31T18:35:36.331Z,27.40
2022-08-31T18:40:56.555Z,27.50
2022-08-31T18:46:16.756Z,27.50
2022-08-31T18:51:36.756Z,27.50
2022-08-31T18:56:56.905Z,27.60
2022-08-31T19:02:17.024Z,27.60
2022-08-31T19:07:37.191Z,27.60
2022-08-31T19:12:57.214Z,27.70
2022-08-31T19:18:17.319Z,27.70
2022-08-31T19:23:37.569Z,27.70
2022-08-31T19:28:57.936Z,27.70
2022-08-31T19:34:18.168Z,27.60
2022-08-31T19:39:38.321Z,27.60
2022-08-31T19:50:41.360Z,27.60
2022-08-31T19:56:02.189Z,27.40
2022-08-31T20:01:23.028Z,27.50
2022-08-31T20:06:43.252Z,27.50
2022-08-31T20:12:03.320Z,27.40
2022-08-31T20:17:23.612Z,27.40
2022-08-31T20:22:43.679Z,27.40
2022-08-31T20:28:03.851Z,27.30
2022-08-31T20:33:24.806Z,27.30
2022-08-31T20:38:45.099Z,27.30
2022-08-31T20:44:05.242Z,27.30
2022-08-31T20:49:25.346Z,27.20
2022-08-31T20:54:45.490Z,27.20
2022-08-31T21:00:05.892Z,27.10
2022-08-31T21:05:37.986Z,27.00
2022-08-31T21:10:58.388Z,27.00
2022-08-31T21:16:18.623Z,27.00
2022-08-31T21:21:38.788Z,27.00
2022-08-31T21:26:58.996Z,27.00
2022-08-31T21:32:19.033Z,27.00
2022-08-31T21:37:39.188Z,27.00
2022-08-31T21:42:59.226Z,27.00
2022-08-31T21:48:19.279Z,27.00
2022-08-31T21:53:46.086Z,27.00
2022-08-31T21:59:06.182Z,27.00
2022-08-31T22:04:26.352Z,27.00
2022-08-31T22:09:46.473Z,27.10
2022-08-31T22:15:06.720Z,27.10
2022-08-31T22:20:26.852Z,27.10
2022-08-31T22:25:48.040Z,27.10
2022-08-31T22:31:08.167Z,27.10
2022-08-31T22:36:31.455Z,27.10
2022-08-31T22:41:52.380Z,27.10
2022-08-31T22:47:12.620Z,27.00
2022-08-31T22:52:32.770Z,27.10
2022-08-31T22:57:52.871Z,27.10
2022-08-31T23:03:13.678Z,27.00
2022-08-31T23:08:33.620Z,27.10
2022-08-31T23:13:53.861Z,27.00
2022-08-31T23:19:13.966Z,27.00
2022-08-31T23:24:34.194Z,27.00
2022-08-31T23:29:54.380Z,27.00
2022-08-31T23:35:14.521Z,27.00
2022-08-31T23:40:34.710Z,27.00
2022-08-31T23:45:54.715Z,27.00
2022-08-31T23:51:15.233Z,27.00
2022-08-31T23:56:35.435Z,27.00
